Time,TemperatureF,DewpointF,PressureIn,WindDirection,WindDirectionDegrees,WindSpeedMPH,WindSpeedGustMPH,Humidity,HourlyPrecipIn,Conditions,Clouds,dailyrainin,SoftwareType,DateUTC
2013-11-29 00:00:00,16.2,4.8,28.47,North,6,0.0,0.0,60,0.00,,,0.00,WSDL version 443,2013-11-29 05:00:00,
2013-11-29 00:04:00,16.2,4.7,28.47,WSW,252,0.0,0.0,60,0.00,,,0.00,WSDL version 443,2013-11-29 05:04:00,
2013-11-29 00:07:00,16.2,4.7,28.47,SW,223,0.0,0.0,60,0.00,,,0.00,WSDL version 443,2013-11-29 05:07:00,
2013-11-29 00:08:00,16.2,4.7,28.47,South,178,0.0,0.0,60,0.00,,,0.00,WSDL version 443,2013-11-29 05:08:00,
2013-11-29 00:09:00,16.2,4.7,28.47,South,169,0.0,0.0,60,0.00,,,0.00,WSDL version 443,2013-11-29 05:09:00,
2013-11-29 00:10:00,16.2,4.7,28.47,South,180,0.0,0.0,60,0.00,,,0.00,WSDL version 443,2013-11-29 05:10:00,
2013-11-29 00:15:00,16.2,4.8,28.47,WSW,243,0.0,0.0,60,0.00,,,0.00,WSDL version 443,2013-11-29 05:15:00,
2013-11-29 00:20:00,16.5,5.4,28.47,SW,225,0.0,0.0,61,0.00,,,0.00,WSDL version 443,2013-11-29 05:20:00,
2013-11-29 00:21:00,16.5,5.4,28.47,SW,232,0.0,0.0,61,0.00,,,0.00,WSDL version 443,2013-11-29 05:21:00,
2013-11-29 00:26:00,16.6,5.5,28.50,South,172,0.0,0.0,61,0.00,,,0.00,WSDL version 443,2013-11-29 05:26:00,
2013-11-29 00:32:00,16.8,5.7,28.50,SSW,197,0.0,0.0,61,0.00,,,0.00,WSDL version 443,2013-11-29 05:32:00,
2013-11-29 00:37:00,16.9,6.1,28.50,SSW,203,0.0,0.0,62,0.00,,,0.00,WSDL version 443,2013-11-29 05:37:00,
2013-11-29 00:43:00,17.1,6.8,28.50,SW,229,0.0,0.0,64,0.00,,,0.00,WSDL version 443,2013-11-29 05:43:00,
2013-11-29 00:49:00,17.2,7.1,28.50,WSW,241,0.0,0.0,64,0.00,,,0.00,WSDL version 443,2013-11-29 05:49:00,
2013-11-29 00:54:00,17.1,7.0,28.50,WSW,243,0.0,0.0,64,0.00,,,0.00,WSDL version 443,2013-11-29 05:54:00,
2013-11-29 01:00:00,17.1,7.2,28.50,WNW,288,0.0,0.0,65,0.00,,,0.00,WSDL version 443,2013-11-29 06:00:00,
2013-11-29 01:06:00,17.1,7.4,28.50,NW,304,0.0,0.0,65,0.00,,,0.00,WSDL version 443,2013-11-29 06:06:00,
2013-11-29 01:14:00,17.1,7.5,28.50,SW,231,0.0,0.0,65,0.00,,,0.00,WSDL version 443,2013-11-29 06:14:00,
2013-11-29 01:19:00,17.1,7.7,28.50,West,270,0.0,0.0,66,0.00,,,0.00,WSDL version 443,2013-11-29 06:19:00,
2013-11-29 01:25:00,17.1,7.7,28.47,WSW,241,0.0,0.0,66,0.00,,,0.00,WSDL version 443,2013-11-29 06:25:00,
2013-11-29 01:31:00,17.1,7.8,28.47,WNW,285,0.0,0.0,66,0.00,,,0.00,WSDL version 443,2013-11-29 06:31:00,
2013-11-29 01:38:00,17.1,8.0,28.47,WSW,252,0.0,0.0,67,0.00,,,0.00,WSDL version 443,2013-11-29 06:38:00,
2013-11-29 01:46:00,16.9,7.8,28.50,SSE,162,0.0,0.0,67,0.00,,,0.00,WSDL version 443,2013-11-29 06:46:00,
2013-11-29 01:53:00,16.7,7.7,28.50,SSW,203,0.0,0.0,67,0.00,,,0.00,WSDL version 443,2013-11-29 06:53:00,
2013-11-29 01:58:00,16.7,8.0,28.50,West,270,0.0,0.0,68,0.00,,,0.00,WSDL version 443,2013-11-29 06:58:00,
2013-11-29 02:04:00,16.7,7.9,28.50,SSE,158,0.0,0.0,68,0.00,,,0.00,WSDL version 443,2013-11-29 07:04:00,
2013-11-29 02:10:00,16.5,8.1,28.50,SW,218,0.0,0.0,69,0.00,,,0.00,WSDL version 443,2013-11-29 07:10:00,
2013-11-29 02:15:00,16.5,8.1,28.50,SSE,158,0.0,0.0,69,0.00,,,0.00,WSDL version 443,2013-11-29 07:15:00,
2013-11-29 02:23:00,16.4,8.0,28.50,ESE,113,0.0,0.0,69,0.00,,,0.00,WSDL version 443,2013-11-29 07:23:00,
2013-11-29 02:30:00,16.2,8.0,28.50,North,360,0.0,0.0,70,0.00,,,0.00,WSDL version 443,2013-11-29 07:30:00,
2013-11-29 02:36:00,16.1,8.1,28.50,ENE,68,0.0,0.0,70,0.00,,,0.00,WSDL version 443,2013-11-29 07:36:00,
2013-11-29 02:41:00,15.9,8.0,28.47,NNW,347,0.0,0.0,70,0.00,,,0.00,WSDL version 443,2013-11-29 07:41:00,
2013-11-29 02:47:00,15.8,8.1,28.47,WSW,250,0.0,0.0,71,0.00,,,0.00,WSDL version 443,2013-11-29 07:47:00,
2013-11-29 02:53:00,15.8,8.2,28.47,ENE,77,0.0,0.0,72,0.00,,,0.00,WSDL version 443,2013-11-29 07:53:00,
2013-11-29 02:58:00,15.4,8.0,28.47,ENE,68,0.0,0.0,72,0.00,,,0.00,WSDL version 443,2013-11-29 07:58:00,
2013-11-29 03:05:00,15.5,8.1,28.47,South,176,0.0,0.0,72,0.00,,,0.00,WSDL version 443,2013-11-29 08:05:00,
2013-11-29 03:10:00,15.3,7.9,28.50,WSW,239,0.0,0.0,72,0.00,,,0.00,WSDL version 443,2013-11-29 08:10:00,
2013-11-29 03:15:00,15.2,7.9,28.50,NNW,338,0.0,0.0,72,0.00,,,0.00,WSDL version 443,2013-11-29 08:15:00,
2013-11-29 03:21:00,15.3,8.5,28.50,NNE,23,0.0,0.0,74,0.00,,,0.00,WSDL version 443,2013-11-29 08:21:00,
2013-11-29 03:27:00,15.2,8.4,28.50,NNE,23,0.0,0.0,74,0.00,,,0.00,WSDL version 443,2013-11-29 08:27:00,
2013-11-29 03:32:00,15.1,8.3,28.50,NNE,31,0.0,0.0,74,0.00,,,0.00,WSDL version 443,2013-11-29 08:32:00,
2013-11-29 03:38:00,15.3,8.5,28.50,ENE,68,0.0,0.0,74,0.00,,,0.00,WSDL version 443,2013-11-29 08:38:00,
2013-11-29 03:44:00,15.3,8.5,28.50,NE,45,0.0,0.0,74,0.00,,,0.00,WSDL version 443,2013-11-29 08:44:00,
2013-11-29 03:51:00,15.3,8.8,28.50,East,90,0.0,0.0,75,0.00,,,0.00,WSDL version 443,2013-11-29 08:51:00,
2013-11-29 03:56:00,15.2,8.7,28.47,NNE,23,0.0,0.0,75,0.00,,,0.00,WSDL version 443,2013-11-29 08:56:00,
2013-11-29 04:02:00,15.1,8.6,28.47,North,10,0.0,0.0,75,0.00,,,0.00,WSDL version 443,2013-11-29 09:02:00,
2013-11-29 04:08:00,15.1,8.9,28.47,NW,315,0.0,0.0,76,0.00,,,0.00,WSDL version 443,2013-11-29 09:08:00,
2013-11-29 04:15:00,15.1,9.0,28.50,NW,315,0.0,0.0,76,0.00,,,0.00,WSDL version 443,2013-11-29 09:15:00,
2013-11-29 04:21:00,15.3,9.4,28.50,NW,315,0.0,0.0,77,0.00,,,0.00,WSDL version 443,2013-11-29 09:21:00,
2013-11-29 04:26:00,15.4,9.9,28.50,NNW,338,0.0,0.0,78,0.00,,,0.00,WSDL version 443,2013-11-29 09:26:00,
2013-11-29 04:32:00,15.6,10.8,28.50,NNW,338,0.0,0.0,81,0.00,,,0.00,WSDL version 443,2013-11-29 09:32:00,
2013-11-29 04:38:00,15.6,10.9,28.50,NNW,338,0.0,0.0,81,0.00,,,0.00,WSDL version 443,2013-11-29 09:38:00,
2013-11-29 04:44:00,15.5,10.5,28.53,NNW,338,0.0,0.0,80,0.00,,,0.00,WSDL version 443,2013-11-29 09:44:00,
2013-11-29 04:51:00,15.5,10.4,28.53,NNW,338,0.0,0.0,80,0.00,,,0.00,WSDL version 443,2013-11-29 09:51:00,
2013-11-29 04:57:00,15.8,10.7,28.50,NNW,344,0.0,0.0,80,0.00,,,0.00,WSDL version 443,2013-11-29 09:57:00,
2013-11-29 05:04:00,16.0,11.0,28.50,NNW,333,0.0,0.0,80,0.00,,,0.00,WSDL version 443,2013-11-29 10:04:00,
2013-11-29 05:11:00,16.2,10.9,28.53,NW,320,0.0,0.0,80,0.00,,,0.00,WSDL version 443,2013-11-29 10:11:00,
2013-11-29 05:16:00,16.0,10.7,28.53,NW,318,0.0,0.0,79,0.00,,,0.00,WSDL version 443,2013-11-29 10:16:00,
2013-11-29 05:23:00,15.8,10.4,28.53,NNW,335,0.0,0.0,79,0.00,,,0.00,WSDL version 443,2013-11-29 10:23:00,
2013-11-29 05:28:00,15.4,10.0,28.53,NW,308,0.0,0.0,79,0.00,,,0.00,WSDL version 443,2013-11-29 10:28:00,
2013-11-29 05:34:00,15.2,9.6,28.53,WNW,283,0.0,0.0,78,0.00,,,0.00,WSDL version 443,2013-11-29 10:34:00,
2013-11-29 05:41:00,15.1,9.5,28.53,NW,317,0.0,0.0,78,0.00,,,0.00,WSDL version 443,2013-11-29 10:41:00,
2013-11-29 05:48:00,14.9,9.6,28.53,NNW,333,0.0,0.0,79,0.00,,,0.00,WSDL version 443,2013-11-29 10:48:00,
2013-11-29 05:53:00,14.9,9.5,28.53,WNW,303,0.0,0.0,79,0.00,,,0.00,WSDL version 443,2013-11-29 10:53:00,
2013-11-29 06:02:00,14.8,9.4,28.53,NW,320,0.0,0.0,79,0.00,,,0.00,WSDL version 443,2013-11-29 11:02:00,
2013-11-29 06:08:00,14.6,9.3,28.53,NW,309,0.0,0.0,79,0.00,,,0.00,WSDL version 443,2013-11-29 11:08:00,
2013-11-29 06:13:00,14.6,9.3,28.53,NNW,331,0.0,0.0,79,0.00,,,0.00,WSDL version 443,2013-11-29 11:13:00,
2013-11-29 06:19:00,14.6,9.4,28.53,NNW,333,0.0,0.0,80,0.00,,,0.00,WSDL version 443,2013-11-29 11:19:00,
2013-11-29 06:24:00,15.0,10.1,28.53,NNW,338,0.0,0.0,81,0.00,,,0.00,WSDL version 443,2013-11-29 11:24:00,
2013-11-29 06:30:00,15.4,11.1,28.56,NNW,348,0.0,0.0,83,0.00,,,0.00,WSDL version 443,2013-11-29 11:30:00,
2013-11-29 06:36:00,15.9,11.8,28.56,North,358,0.0,0.0,83,0.00,,,0.00,WSDL version 443,2013-11-29 11:36:00,
2013-11-29 06:42:00,16.3,12.1,28.56,NNW,347,0.0,0.0,83,0.00,,,0.00,WSDL version 443,2013-11-29 11:42:00,
2013-11-29 06:47:00,16.7,12.5,28.56,NW,319,0.0,0.0,83,0.00,,,0.00,WSDL version 443,2013-11-29 11:47:00,
2013-11-29 06:53:00,16.9,12.7,28.56,NNW,346,0.0,0.0,83,0.00,,,0.00,WSDL version 443,2013-11-29 11:53:00,
2013-11-29 06:58:00,17.1,12.9,28.53,NNW,348,0.0,0.0,83,0.00,,,0.00,WSDL version 443,2013-11-29 11:58:00,
2013-11-29 07:04:00,17.3,12.8,28.53,NW,306,0.0,0.0,82,0.00,,,0.00,WSDL version 443,2013-11-29 12:04:00,
2013-11-29 07:10:00,17.4,12.9,28.56,NW,313,0.0,0.0,82,0.00,,,0.00,WSDL version 443,2013-11-29 12:10:00,
2013-11-29 07:15:00,17.4,12.9,28.56,WNW,297,0.0,0.0,82,0.00,,,0.00,WSDL version 443,2013-11-29 12:15:00,
2013-11-29 07:21:00,17.3,12.5,28.56,SE,143,0.0,0.0,81,0.00,,,0.00,WSDL version 443,2013-11-29 12:21:00,
2013-11-29 07:27:00,16.8,11.8,28.56,SSE,158,0.0,0.0,80,0.00,,,0.00,WSDL version 443,2013-11-29 12:27:00,
2013-11-29 07:32:00,16.3,11.2,28.56,SSE,158,0.0,0.0,80,0.00,,,0.00,WSDL version 443,2013-11-29 12:32:00,
2013-11-29 07:38:00,16.2,11.1,28.56,SSE,158,0.0,0.0,80,0.00,,,0.00,WSDL version 443,2013-11-29 12:38:00,
2013-11-29 07:44:00,16.4,11.3,28.59,SE,135,0.0,0.0,80,0.00,,,0.00,WSDL version 443,2013-11-29 12:44:00,
2013-11-29 07:49:00,16.6,11.5,28.59,SE,135,0.0,0.0,80,0.00,,,0.00,WSDL version 443,2013-11-29 12:49:00,
2013-11-29 07:55:00,16.7,11.6,28.59,SE,135,0.0,0.0,80,0.00,,,0.00,WSDL version 443,2013-11-29 12:55:00,
2013-11-29 08:00:00,17.0,11.9,28.59,ESE,113,0.0,0.0,80,0.00,,,0.00,WSDL version 443,2013-11-29 13:00:00,
2013-11-29 08:06:00,17.4,12.4,28.59,ESE,113,0.0,0.0,81,0.00,,,0.00,WSDL version 443,2013-11-29 13:06:00,
2013-11-29 08:12:00,17.4,12.3,28.59,ESE,113,0.0,0.0,80,0.00,,,0.00,WSDL version 443,2013-11-29 13:12:00,
2013-11-29 08:17:00,17.5,12.4,28.59,SE,135,0.0,0.0,80,0.00,,,0.00,WSDL version 443,2013-11-29 13:17:00,
2013-11-29 08:22:00,17.7,12.5,28.59,ESE,113,0.0,0.0,80,0.00,,,0.00,WSDL version 443,2013-11-29 13:22:00,
2013-11-29 08:29:00,18.1,12.8,28.61,SE,135,0.0,0.0,80,0.00,,,0.00,WSDL version 443,2013-11-29 13:29:00,
2013-11-29 08:35:00,20.0,14.8,28.61,ESE,113,0.0,0.0,80,0.00,,,0.00,WSDL version 443,2013-11-29 13:35:00,
2013-11-29 08:44:00,21.5,16.1,28.61,SE,128,0.0,0.0,79,0.00,,,0.00,WSDL version 443,2013-11-29 13:44:00,
2013-11-29 08:51:00,26.7,21.0,28.61,ESE,113,0.0,0.0,79,0.00,,,0.00,WSDL version 443,2013-11-29 13:51:00,
2013-11-29 08:57:00,29.0,20.3,28.61,North,11,0.0,0.0,70,0.00,,,0.00,WSDL version 443,2013-11-29 13:57:00,
2013-11-29 09:02:00,29.9,19.9,28.61,SSE,166,0.0,0.0,66,0.00,,,0.00,WSDL version 443,2013-11-29 14:02:00,
2013-11-29 09:09:00,28.6,15.5,28.59,South,180,0.0,0.0,58,0.00,,,0.00,WSDL version 443,2013-11-29 14:09:00,
2013-11-29 09:15:00,29.4,16.1,28.59,SSW,200,0.0,0.0,57,0.00,,,0.00,WSDL version 443,2013-11-29 14:15:00,
2013-11-29 09:21:00,30.9,16.8,28.59,WNW,295,0.0,0.0,55,0.00,,,0.00,WSDL version 443,2013-11-29 14:21:00,
2013-11-29 09:27:00,30.7,14.7,28.59,NW,321,0.0,0.0,51,0.00,,,0.00,WSDL version 443,2013-11-29 14:27:00,
2013-11-29 09:33:00,31.0,14.1,28.59,NW,313,0.0,0.0,49,0.00,,,0.00,WSDL version 443,2013-11-29 14:33:00,
2013-11-29 09:38:00,30.4,13.0,28.59,NNW,344,0.0,0.0,48,0.00,,,0.00,WSDL version 443,2013-11-29 14:38:00,
2013-11-29 09:44:00,32.0,13.0,28.61,North,6,0.0,0.0,45,0.00,,,0.00,WSDL version 443,2013-11-29 14:44:00,
2013-11-29 09:50:00,33.1,13.9,28.61,North,8,0.0,0.0,45,0.00,,,0.00,WSDL version 443,2013-11-29 14:50:00,
2013-11-29 09:55:00,33.0,12.9,28.61,East,81,0.0,0.0,43,0.00,,,0.00,WSDL version 443,2013-11-29 14:55:00,
2013-11-29 10:01:00,35.5,14.6,28.61,WNW,295,0.0,0.0,42,0.00,,,0.00,WSDL version 443,2013-11-29 15:01:00,
2013-11-29 10:07:00,35.3,13.5,28.61,WNW,287,0.0,0.0,40,0.00,,,0.00,WSDL version 443,2013-11-29 15:07:00,
2013-11-29 10:12:00,34.5,11.5,28.61,NW,311,0.0,0.0,38,0.00,,,0.00,WSDL version 443,2013-11-29 15:12:00,
2013-11-29 10:18:00,34.0,9.9,28.61,NW,320,0.0,0.0,36,0.00,,,0.00,WSDL version 443,2013-11-29 15:18:00,
2013-11-29 10:23:00,33.8,9.9,28.61,NW,306,0.0,0.0,36,0.00,,,0.00,WSDL version 443,2013-11-29 15:23:00,
2013-11-29 10:25:00,33.3,9.2,28.61,NNW,332,0.0,0.0,36,0.00,,,0.00,WSDL version 443,2013-11-29 15:25:00,
2013-11-29 10:26:00,33.8,10.3,28.61,NNW,338,0.0,0.0,37,0.00,,,0.00,WSDL version 443,2013-11-29 15:26:00,
2013-11-29 10:27:00,33.6,10.1,28.61,NNW,330,0.0,0.0,37,0.00,,,0.00,WSDL version 443,2013-11-29 15:27:00,
2013-11-29 10:28:00,34.0,10.4,28.61,NW,323,0.0,0.0,37,0.00,,,0.00,WSDL version 443,2013-11-29 15:28:00,
2013-11-29 10:29:00,33.3,9.8,28.61,NW,315,0.0,0.0,37,0.00,,,0.00,WSDL version 443,2013-11-29 15:29:00,
2013-11-29 10:30:00,33.3,9.8,28.61,NNW,330,0.0,0.0,37,0.00,,,0.00,WSDL version 443,2013-11-29 15:30:00,
2013-11-29 10:31:00,31.1,7.2,28.61,NW,323,0.0,0.0,36,0.00,,,0.00,WSDL version 443,2013-11-29 15:31:00,
2013-11-29 10:32:00,30.0,6.3,28.61,WNW,300,0.0,0.0,36,0.00,,,0.00,WSDL version 443,2013-11-29 15:32:00,
2013-11-29 10:33:00,30.6,7.4,28.61,WNW,300,0.0,0.0,37,0.00,,,0.00,WSDL version 443,2013-11-29 15:33:00,
2013-11-29 10:34:00,31.1,9.6,28.61,NW,315,0.0,0.0,40,0.00,,,0.00,WSDL version 443,2013-11-29 15:34:00,
2013-11-29 10:35:00,31.1,9.6,28.61,NNW,330,0.0,0.0,40,0.00,,,0.00,WSDL version 443,2013-11-29 15:35:00,
2013-11-29 10:36:00,30.9,8.9,28.61,NW,323,0.0,0.0,39,0.00,,,0.00,WSDL version 443,2013-11-29 15:36:00,
2013-11-29 10:46:00,30.0,8.1,28.61,NW,315,0.0,0.0,39,0.00,,,0.00,WSDL version 443,2013-11-29 15:46:00,
2013-11-29 10:51:00,31.7,10.5,28.61,WNW,288,0.0,0.0,41,0.00,,,0.00,WSDL version 443,2013-11-29 15:51:00,
2013-11-29 10:56:00,32.7,10.9,28.61,NW,313,0.0,0.0,40,0.00,,,0.00,WSDL version 443,2013-11-29 15:56:00,
2013-11-29 11:02:00,33.0,9.7,28.61,WNW,297,0.0,0.0,37,0.00,,,0.00,WSDL version 443,2013-11-29 16:02:00,
2013-11-29 11:08:00,33.7,10.6,28.61,NNW,330,0.0,0.0,38,0.00,,,0.00,WSDL version 443,2013-11-29 16:08:00,
2013-11-29 11:13:00,31.8,8.8,28.61,North,351,0.0,0.0,38,0.00,,,0.00,WSDL version 443,2013-11-29 16:13:00,
2013-11-29 11:19:00,28.8,7.1,28.61,NW,325,0.0,0.0,39,0.00,,,0.00,WSDL version 443,2013-11-29 16:19:00,
2013-11-29 11:25:00,28.8,8.1,28.61,North,2,0.0,0.0,41,0.00,,,0.00,WSDL version 443,2013-11-29 16:25:00,
2013-11-29 11:30:00,31.2,10.1,28.61,WNW,285,0.0,0.0,41,0.00,,,0.00,WSDL version 443,2013-11-29 16:30:00,
2013-11-29 11:35:00,31.5,9.5,28.61,North,5,0.0,0.0,39,0.00,,,0.00,WSDL version 443,2013-11-29 16:35:00,
2013-11-29 11:42:00,32.1,10.1,28.61,NW,304,0.0,0.0,39,0.00,,,0.00,WSDL version 443,2013-11-29 16:42:00,
2013-11-29 11:47:00,31.1,7.2,28.61,NW,305,0.0,0.0,36,0.00,,,0.00,WSDL version 443,2013-11-29 16:47:00,
2013-11-29 11:53:00,31.4,8.0,28.61,WNW,301,0.0,0.0,37,0.00,,,0.00,WSDL version 443,2013-11-29 16:53:00,
2013-11-29 11:59:00,29.8,7.3,28.61,NW,310,0.0,0.0,38,0.00,,,0.00,WSDL version 443,2013-11-29 16:59:00,
2013-11-29 12:04:00,31.7,9.1,28.61,NW,304,0.0,0.0,38,0.00,,,0.00,WSDL version 443,2013-11-29 17:04:00,
2013-11-29 12:12:00,26.4,5.7,28.61,NNW,329,0.0,0.0,41,0.00,,,0.00,WSDL version 443,2013-11-29 17:12:00,
2013-11-29 12:19:00,25.0,5.8,28.61,NNW,327,0.0,0.0,43,0.00,,,0.00,WSDL version 443,2013-11-29 17:19:00,
2013-11-29 12:24:00,25.6,6.9,28.61,WNW,302,0.0,0.0,44,0.00,,,0.00,WSDL version 443,2013-11-29 17:24:00,
2013-11-29 12:30:00,25.6,6.9,28.61,NW,306,0.0,0.0,44,0.00,,,0.00,WSDL version 443,2013-11-29 17:30:00,
2013-11-29 12:36:00,26.1,7.3,28.61,NW,313,0.0,0.0,44,0.00,,,0.00,WSDL version 443,2013-11-29 17:36:00,
2013-11-29 12:41:00,28.0,7.9,28.61,WNW,297,0.0,0.0,42,0.00,,,0.00,WSDL version 443,2013-11-29 17:41:00,
2013-11-29 12:49:00,31.0,9.5,28.61,South,176,0.0,0.0,40,0.00,,,0.00,WSDL version 443,2013-11-29 17:49:00,
2013-11-29 12:55:00,29.6,7.0,28.59,NW,304,0.0,0.0,38,0.00,,,0.00,WSDL version 443,2013-11-29 17:55:00,
2013-11-29 13:00:00,28.2,5.9,28.59,NNW,333,0.0,0.0,38,0.00,,,0.00,WSDL version 443,2013-11-29 18:00:00,
2013-11-29 13:06:00,27.8,6.2,28.59,WNW,299,0.0,0.0,39,0.00,,,0.00,WSDL version 443,2013-11-29 18:06:00,
2013-11-29 13:11:00,27.1,5.3,28.59,West,274,0.0,0.0,39,0.00,,,0.00,WSDL version 443,2013-11-29 18:11:00,
2013-11-29 13:16:00,27.0,5.7,28.59,NW,318,0.0,0.0,40,0.00,,,0.00,WSDL version 443,2013-11-29 18:16:00,
2013-11-29 13:23:00,29.9,8.1,28.59,WNW,299,0.0,0.0,39,0.00,,,0.00,WSDL version 443,2013-11-29 18:23:00,
2013-11-29 13:29:00,33.5,9.6,28.59,NW,306,0.0,0.0,37,0.00,,,0.00,WSDL version 443,2013-11-29 18:29:00,
2013-11-29 13:34:00,33.2,6.8,28.59,SE,131,0.0,0.0,32,0.00,,,0.00,WSDL version 443,2013-11-29 18:34:00,
2013-11-29 13:40:00,29.8,3.4,28.59,WNW,293,0.0,0.0,32,0.00,,,0.00,WSDL version 443,2013-11-29 18:40:00,
2013-11-29 13:46:00,27.2,2.3,28.59,NW,308,0.0,0.0,34,0.00,,,0.00,WSDL version 443,2013-11-29 18:46:00,
2013-11-29 13:51:00,26.9,2.2,28.59,NNW,329,0.0,0.0,34,0.00,,,0.00,WSDL version 443,2013-11-29 18:51:00,
2013-11-29 13:57:00,27.2,3.0,28.59,NNW,345,0.0,0.0,35,0.00,,,0.00,WSDL version 443,2013-11-29 18:57:00,
2013-11-29 14:04:00,27.0,3.0,28.59,NNW,338,0.0,0.0,35,0.00,,,0.00,WSDL version 443,2013-11-29 19:04:00,
2013-11-29 14:10:00,27.1,3.1,28.59,NW,313,0.0,0.0,35,0.00,,,0.00,WSDL version 443,2013-11-29 19:10:00,
2013-11-29 14:18:00,26.4,3.2,28.59,NW,313,0.0,0.0,36,0.00,,,0.00,WSDL version 443,2013-11-29 19:18:00,
2013-11-29 14:28:00,25.3,3.6,28.59,NW,315,0.0,0.0,39,0.00,,,0.00,WSDL version 443,2013-11-29 19:28:00,
2013-11-29 14:34:00,24.5,4.4,28.59,NNW,330,0.0,0.0,42,0.00,,,0.00,WSDL version 443,2013-11-29 19:34:00,
2013-11-29 14:40:00,24.1,4.3,28.61,NW,315,0.0,0.0,42,0.00,,,0.00,WSDL version 443,2013-11-29 19:40:00,
2013-11-29 14:45:00,24.2,4.9,28.61,NW,321,0.0,0.0,43,0.00,,,0.00,WSDL version 443,2013-11-29 19:45:00,
2013-11-29 14:55:00,23.4,4.1,28.61,WNW,301,0.0,0.0,43,0.00,,,0.00,WSDL version 443,2013-11-29 19:55:00,
2013-11-29 15:02:00,23.4,4.2,28.61,NW,315,0.0,0.0,43,0.00,,,0.00,WSDL version 443,2013-11-29 20:02:00,
2013-11-29 15:08:00,24.5,5.0,28.61,NW,323,0.0,0.0,43,0.00,,,0.00,WSDL version 443,2013-11-29 20:08:00,
2013-11-29 15:13:00,25.8,5.8,28.61,NW,313,0.0,0.0,42,0.00,,,0.00,WSDL version 443,2013-11-29 20:13:00,
2013-11-29 15:20:00,26.3,5.5,28.61,NW,315,0.0,0.0,41,0.00,,,0.00,WSDL version 443,2013-11-29 20:20:00,
2013-11-29 15:27:00,26.3,4.1,28.61,NW,310,0.0,0.0,38,0.00,,,0.00,WSDL version 443,2013-11-29 20:27:00,
2013-11-29 15:32:00,26.0,2.7,28.61,WNW,302,0.0,0.0,36,0.00,,,0.00,WSDL version 443,2013-11-29 20:32:00,
2013-11-29 15:38:00,25.1,1.7,28.61,NNW,329,0.0,0.0,36,0.00,,,0.00,WSDL version 443,2013-11-29 20:38:00,
2013-11-29 15:46:00,23.3,1.0,28.61,West,279,0.0,0.0,37,0.00,,,0.00,WSDL version 443,2013-11-29 20:46:00,
2013-11-29 15:53:00,22.2,1.8,28.61,NW,309,0.0,0.0,41,0.00,,,0.00,WSDL version 443,2013-11-29 20:53:00,
2013-11-29 15:58:00,21.8,2.3,28.61,WNW,293,0.0,0.0,42,0.00,,,0.00,WSDL version 443,2013-11-29 20:58:00,
2013-11-29 16:04:00,21.5,2.4,28.61,NW,311,0.0,0.0,43,0.00,,,0.00,WSDL version 443,2013-11-29 21:04:00,
2013-11-29 16:10:00,21.3,2.5,28.61,NW,324,0.0,0.0,43,0.00,,,0.00,WSDL version 443,2013-11-29 21:10:00,
2013-11-29 16:15:00,21.1,2.7,28.61,NW,307,0.0,0.0,44,0.00,,,0.00,WSDL version 443,2013-11-29 21:15:00,
2013-11-29 16:21:00,20.7,2.7,28.61,WNW,300,0.0,0.0,45,0.00,,,0.00,WSDL version 443,2013-11-29 21:21:00,
2013-11-29 16:27:00,20.5,2.5,28.64,NW,313,0.0,0.0,45,0.00,,,0.00,WSDL version 443,2013-11-29 21:27:00,
2013-11-29 16:32:00,20.3,2.3,28.64,NW,307,0.0,0.0,45,0.00,,,0.00,WSDL version 443,2013-11-29 21:32:00,
2013-11-29 16:37:00,20.2,2.5,28.64,NW,311,0.0,0.0,45,0.00,,,0.00,WSDL version 443,2013-11-29 21:37:00,
2013-11-29 16:43:00,19.9,2.5,28.64,NW,308,0.0,0.0,46,0.00,,,0.00,WSDL version 443,2013-11-29 21:43:00,
2013-11-29 16:49:00,19.6,2.6,28.64,WNW,303,0.0,0.0,47,0.00,,,0.00,WSDL version 443,2013-11-29 21:49:00,
2013-11-29 16:55:00,19.6,3.1,28.64,WNW,300,0.0,0.0,48,0.00,,,0.00,WSDL version 443,2013-11-29 21:55:00,
2013-11-29 17:00:00,19.6,3.4,28.64,WNW,303,0.0,0.0,49,0.00,,,0.00,WSDL version 443,2013-11-29 22:00:00,
2013-11-29 17:06:00,19.5,3.6,28.64,WNW,288,0.0,0.0,50,0.00,,,0.00,WSDL version 443,2013-11-29 22:06:00,
2013-11-29 17:12:00,19.1,3.5,28.64,WNW,295,0.0,0.0,50,0.00,,,0.00,WSDL version 443,2013-11-29 22:12:00,
2013-11-29 17:17:00,19.2,4.2,28.64,NW,315,0.0,0.0,52,0.00,,,0.00,WSDL version 443,2013-11-29 22:17:00,
2013-11-29 17:23:00,19.0,4.4,28.64,NW,309,0.0,0.0,52,0.00,,,0.00,WSDL version 443,2013-11-29 22:23:00,
2013-11-29 17:29:00,19.0,4.7,28.64,WNW,290,0.0,0.0,53,0.00,,,0.00,WSDL version 443,2013-11-29 22:29:00,
2013-11-29 17:34:00,18.9,4.9,28.64,NW,317,0.0,0.0,54,0.00,,,0.00,WSDL version 443,2013-11-29 22:34:00,
2013-11-29 17:41:00,18.7,4.8,28.67,WNW,286,0.0,0.0,54,0.00,,,0.00,WSDL version 443,2013-11-29 22:41:00,
2013-11-29 17:48:00,18.6,4.7,28.67,WNW,302,0.0,0.0,54,0.00,,,0.00,WSDL version 443,2013-11-29 22:48:00,
2013-11-29 17:53:00,18.5,4.3,28.67,WNW,293,0.0,0.0,53,0.00,,,0.00,WSDL version 443,2013-11-29 22:53:00,
2013-11-29 18:01:00,18.2,3.8,28.67,WNW,302,0.0,0.0,53,0.00,,,0.00,WSDL version 443,2013-11-29 23:01:00,
2013-11-29 18:08:00,18.1,3.1,28.67,NW,306,0.0,0.0,51,0.00,,,0.00,WSDL version 443,2013-11-29 23:08:00,
2013-11-29 18:13:00,18.1,2.6,28.67,NW,320,0.0,0.0,50,0.00,,,0.00,WSDL version 443,2013-11-29 23:13:00,
2013-11-29 18:19:00,17.7,2.2,28.67,NW,325,0.0,0.0,50,0.00,,,0.00,WSDL version 443,2013-11-29 23:19:00,
2013-11-29 18:25:00,17.6,2.1,28.67,NW,306,0.0,0.0,50,0.00,,,0.00,WSDL version 443,2013-11-29 23:25:00,
2013-11-29 18:31:00,17.7,1.7,28.67,WNW,302,0.0,0.0,49,0.00,,,0.00,WSDL version 443,2013-11-29 23:31:00,
2013-11-29 18:36:00,17.6,1.6,28.67,West,280,0.0,0.0,49,0.00,,,0.00,WSDL version 443,2013-11-29 23:36:00,
2013-11-29 18:42:00,17.3,1.4,28.67,WNW,297,0.0,0.0,49,0.00,,,0.00,WSDL version 443,2013-11-29 23:42:00,
2013-11-29 18:50:00,16.8,1.0,28.67,WNW,303,0.0,0.0,49,0.00,,,0.00,WSDL version 443,2013-11-29 23:50:00,
2013-11-29 18:56:00,16.8,1.1,28.67,NW,309,0.0,0.0,50,0.00,,,0.00,WSDL version 443,2013-11-29 23:56:00,
2013-11-29 19:03:00,16.8,1.0,28.67,NW,323,0.0,0.0,49,0.00,,,0.00,WSDL version 443,2013-11-30 00:03:00,
2013-11-29 19:10:00,16.3,0.7,28.67,NW,315,0.0,0.0,50,0.00,,,0.00,WSDL version 443,2013-11-30 00:10:00,
2013-11-29 19:15:00,16.2,0.8,28.67,NW,313,0.0,0.0,50,0.00,,,0.00,WSDL version 443,2013-11-30 00:15:00,
2013-11-29 19:21:00,16.1,0.7,28.67,WNW,290,0.0,0.0,50,0.00,,,0.00,WSDL version 443,2013-11-30 00:21:00,
2013-11-29 19:27:00,16.3,0.6,28.67,WNW,287,0.0,0.0,49,0.00,,,0.00,WSDL version 443,2013-11-30 00:27:00,
2013-11-29 19:32:00,15.9,0.5,28.67,WNW,286,0.0,0.0,50,0.00,,,0.00,WSDL version 443,2013-11-30 00:32:00,
2013-11-29 19:37:00,15.3,0.0,28.67,NW,315,0.0,0.0,50,0.00,,,0.00,WSDL version 443,2013-11-30 00:37:00,
2013-11-29 19:42:00,14.9,0.0,28.67,NW,313,0.0,0.0,51,0.00,,,0.00,WSDL version 443,2013-11-30 00:42:00,
2013-11-29 19:49:00,14.9,0.3,28.67,WNW,293,0.0,0.0,52,0.00,,,0.00,WSDL version 443,2013-11-30 00:49:00,
2013-11-29 19:55:00,14.4,0.0,28.67,WNW,295,0.0,0.0,52,0.00,,,0.00,WSDL version 443,2013-11-30 00:55:00,
2013-11-29 20:01:00,13.9,-0.1,28.67,West,280,0.0,0.0,53,0.00,,,0.00,WSDL version 443,2013-11-30 01:01:00,
2013-11-29 20:06:00,13.7,-0.3,28.67,WNW,297,0.0,0.0,53,0.00,,,0.00,WSDL version 443,2013-11-30 01:06:00,
2013-11-29 20:12:00,13.6,-0.4,28.70,West,280,0.0,0.0,53,0.00,,,0.00,WSDL version 443,2013-11-30 01:12:00,
2013-11-29 20:17:00,13.6,-0.3,28.70,West,270,0.0,0.0,53,0.00,,,0.00,WSDL version 443,2013-11-30 01:17:00,
2013-11-29 20:23:00,13.5,-0.5,28.70,West,266,0.0,0.0,53,0.00,,,0.00,WSDL version 443,2013-11-30 01:23:00,
2013-11-29 20:29:00,13.9,0.4,28.70,West,280,0.0,0.0,54,0.00,,,0.00,WSDL version 443,2013-11-30 01:29:00,
2013-11-29 20:34:00,14.4,1.9,28.70,WNW,288,0.0,0.0,57,0.00,,,0.00,WSDL version 443,2013-11-30 01:34:00,
2013-11-29 20:42:00,14.6,2.2,28.70,West,278,0.0,0.0,57,0.00,,,0.00,WSDL version 443,2013-11-30 01:42:00,
2013-11-29 20:49:00,14.9,2.4,28.70,NNW,336,0.0,0.0,57,0.00,,,0.00,WSDL version 443,2013-11-30 01:49:00,
2013-11-29 20:55:00,14.7,2.2,28.73,NW,308,0.0,0.0,57,0.00,,,0.00,WSDL version 443,2013-11-30 01:55:00,
2013-11-29 21:00:00,14.5,2.1,28.73,WNW,293,0.0,0.0,57,0.00,,,0.00,WSDL version 443,2013-11-30 02:00:00,
2013-11-29 21:06:00,14.5,2.1,28.73,NW,325,0.0,0.0,57,0.00,,,0.00,WSDL version 443,2013-11-30 02:06:00,
2013-11-29 21:11:00,14.5,2.4,28.73,NNW,329,0.0,0.0,58,0.00,,,0.00,WSDL version 443,2013-11-30 02:11:00,
2013-11-29 21:17:00,14.6,2.9,28.73,NW,317,0.0,0.0,59,0.00,,,0.00,WSDL version 443,2013-11-30 02:17:00,
2013-11-29 21:22:00,14.4,3.0,28.73,NW,315,0.0,0.0,60,0.00,,,0.00,WSDL version 443,2013-11-30 02:22:00,
2013-11-29 21:28:00,14.4,3.5,28.73,NNW,329,0.0,0.0,61,0.00,,,0.00,WSDL version 443,2013-11-30 02:28:00,
2013-11-29 21:35:00,14.4,3.8,28.73,NW,306,0.0,0.0,62,0.00,,,0.00,WSDL version 443,2013-11-30 02:35:00,
2013-11-29 21:44:00,14.7,4.7,28.73,NNW,333,0.0,0.0,64,0.00,,,0.00,WSDL version 443,2013-11-30 02:44:00,
2013-11-29 21:51:00,14.8,4.9,28.73,NW,313,0.0,0.0,64,0.00,,,0.00,WSDL version 443,2013-11-30 02:51:00,
2013-11-29 21:56:00,15.1,5.8,28.73,WNW,303,0.0,0.0,66,0.00,,,0.00,WSDL version 443,2013-11-30 02:56:00,
2013-11-29 22:01:00,15.2,5.9,28.73,NW,321,0.0,0.0,66,0.00,,,0.00,WSDL version 443,2013-11-30 03:01:00,
2013-11-29 22:09:00,15.4,5.9,28.73,NW,313,0.0,0.0,66,0.00,,,0.00,WSDL version 443,2013-11-30 03:09:00,
2013-11-29 22:16:00,15.4,5.8,28.73,West,278,0.0,0.0,65,0.00,,,0.00,WSDL version 443,2013-11-30 03:16:00,
2013-11-29 22:21:00,15.4,5.4,28.73,WNW,298,0.0,0.0,64,0.00,,,0.00,WSDL version 443,2013-11-30 03:21:00,
2013-11-29 22:27:00,15.4,5.4,28.73,NW,306,0.0,0.0,64,0.00,,,0.00,WSDL version 443,2013-11-30 03:27:00,
2013-11-29 22:33:00,15.3,5.3,28.73,NW,305,0.0,0.0,64,0.00,,,0.00,WSDL version 443,2013-11-30 03:33:00,
2013-11-29 22:38:00,15.2,5.2,28.73,NW,313,0.0,0.0,64,0.00,,,0.00,WSDL version 443,2013-11-30 03:38:00,
2013-11-29 22:46:00,15.0,5.0,28.73,NW,311,0.0,0.0,64,0.00,,,0.00,WSDL version 443,2013-11-30 03:46:00,
2013-11-29 22:51:00,14.8,4.8,28.73,NW,315,0.0,0.0,64,0.00,,,0.00,WSDL version 443,2013-11-30 03:51:00,
2013-11-29 22:58:00,14.5,4.6,28.73,NW,304,0.0,0.0,64,0.00,,,0.00,WSDL version 443,2013-11-30 03:58:00,
2013-11-29 23:03:00,14.5,4.6,28.73,WNW,288,0.0,0.0,64,0.00,,,0.00,WSDL version 443,2013-11-30 04:03:00,
2013-11-29 23:11:00,14.5,4.5,28.76,NW,307,0.0,0.0,64,0.00,,,0.00,WSDL version 443,2013-11-30 04:11:00,
2013-11-29 23:18:00,14.4,4.4,28.76,WNW,301,0.0,0.0,64,0.00,,,0.00,WSDL version 443,2013-11-30 04:18:00,
2013-11-29 23:23:00,14.2,4.2,28.76,NW,311,0.0,0.0,64,0.00,,,0.00,WSDL version 443,2013-11-30 04:23:00,
2013-11-29 23:29:00,14.0,4.0,28.73,WNW,290,0.0,0.0,64,0.00,,,0.00,WSDL version 443,2013-11-30 04:29:00,
2013-11-29 23:35:00,13.8,3.9,28.73,WNW,293,0.0,0.0,64,0.00,,,0.00,WSDL version 443,2013-11-30 04:35:00,
2013-11-29 23:42:00,13.7,3.8,28.76,NW,304,0.0,0.0,64,0.00,,,0.00,WSDL version 443,2013-11-30 04:42:00,
2013-11-29 23:49:00,13.4,3.5,28.76,NW,308,0.0,0.0,64,0.00,,,0.00,WSDL version 443,2013-11-30 04:49:00,
2013-11-29 23:55:00,12.9,3.0,28.73,NW,309,0.0,0.0,64,0.00,,,0.00,WSDL version 443,2013-11-30 04:55:00,